sensor_id;sensor_type;location;lat;lon;timestamp;pressure;altitude;pressure_sealevel;temperature;humidity
68941;BME280;55982;51.476;7.552;2023-02-28T00:00:29;101123.09;;;-0.39;100.00
68941;BME280;55982;51.476;7.552;2023-02-28T00:02:54;101120.41;;;-0.42;100.00
68941;BME280;55982;51.476;7.552;2023-02-28T00:05:20;101127.09;;;-0.47;100.00
68941;BME280;55982;51.476;7.552;2023-02-28T00:07:46;101122.97;;;-0.42;100.00
68941;BME280;55982;51.476;7.552;2023-02-28T00:10:13;101122.25;;;-0.38;100.00
68941;BME280;55982;51.476;7.552;2023-02-28T00:12:38;101126.25;;;-0.46;100.00
68941;BME280;55982;51.476;7.552;2023-02-28T00:15:13;101126.38;;;-0.43;100.00
68941;BME280;55982;51.476;7.552;2023-02-28T00:17:38;101124.25;;;-0.56;100.00
68941;BME280;55982;51.476;7.552;2023-02-28T00:20:04;101129.88;;;-0.41;100.00
68941;BME280;55982;51.476;7.552;2023-02-28T00:22:32;101127.75;;;-0.54;100.00
68941;BME280;55982;51.476;7.552;2023-02-28T00:24:58;101126.47;;;-0.40;100.00
68941;BME280;55982;51.476;7.552;2023-02-28T00:27:23;101125.31;;;-0.49;100.00
68941;BME280;55982;51.476;7.552;2023-02-28T00:29:48;101126.38;;;-0.43;100.00
68941;BME280;55982;51.476;7.552;2023-02-28T00:32:13;101122.78;;;-0.48;100.00
68941;BME280;55982;51.476;7.552;2023-02-28T00:34:39;101126.66;;;-0.60;100.00
68941;BME280;55982;51.476;7.552;2023-02-28T00:37:05;101122.09;;;-0.69;100.00
68941;BME280;55982;51.476;7.552;2023-02-28T00:39:30;101122.94;;;-0.95;100.00
68941;BME280;55982;51.476;7.552;2023-02-28T00:41:56;101122.50;;;-1.07;100.00
68941;BME280;55982;51.476;7.552;2023-02-28T00:44:21;101131.38;;;-1.23;100.00
68941;BME280;55982;51.476;7.552;2023-02-28T00:46:46;101127.13;;;-1.22;100.00
68941;BME280;55982;51.476;7.552;2023-02-28T00:49:12;101115.22;;;-1.20;100.00
68941;BME280;55982;51.476;7.552;2023-02-28T00:51:37;101119.91;;;-1.32;100.00
68941;BME280;55982;51.476;7.552;2023-02-28T00:54:02;101122.38;;;-1.35;100.00
68941;BME280;55982;51.476;7.552;2023-02-28T00:56:28;101127.69;;;-1.54;100.00
68941;BME280;55982;51.476;7.552;2023-02-28T00:58:53;101130.63;;;-1.67;100.00
68941;BME280;55982;51.476;7.552;2023-02-28T01:01:18;101134.38;;;-1.34;100.00
68941;BME280;55982;51.476;7.552;2023-02-28T01:03:43;101131.63;;;-1.40;100.00
68941;BME280;55982;51.476;7.552;2023-02-28T01:06:09;101129.97;;;-1.38;100.00
68941;BME280;55982;51.476;7.552;2023-02-28T01:08:34;101127.38;;;-1.63;100.00
68941;BME280;55982;51.476;7.552;2023-02-28T01:11:07;101129.53;;;-1.50;100.00
68941;BME280;55982;51.476;7.552;2023-02-28T01:13:32;101123.00;;;-1.42;100.00
68941;BME280;55982;51.476;7.552;2023-02-28T01:15:57;101121.22;;;-1.43;100.00
68941;BME280;55982;51.476;7.552;2023-02-28T01:18:23;101117.53;;;-1.51;100.00
68941;BME280;55982;51.476;7.552;2023-02-28T01:20:49;101112.31;;;-1.76;100.00
68941;BME280;55982;51.476;7.552;2023-02-28T01:23:16;101124.28;;;-1.53;100.00
68941;BME280;55982;51.476;7.552;2023-02-28T01:25:42;101112.59;;;-1.69;100.00
68941;BME280;55982;51.476;7.552;2023-02-28T01:28:07;101115.84;;;-1.97;100.00
68941;BME280;55982;51.476;7.552;2023-02-28T01:30:32;101115.38;;;-2.09;100.00
68941;BME280;55982;51.476;7.552;2023-02-28T01:32:58;101115.28;;;-2.12;100.00
68941;BME280;55982;51.476;7.552;2023-02-28T01:35:23;101118.31;;;-2.22;100.00
68941;BME280;55982;51.476;7.552;2023-02-28T01:37:48;101119.59;;;-2.33;100.00
68941;BME280;55982;51.476;7.552;2023-02-28T01:40:13;101118.47;;;-2.39;100.00
68941;BME280;55982;51.476;7.552;2023-02-28T01:42:39;101116.72;;;-2.40;100.00
68941;BME280;55982;51.476;7.552;2023-02-28T01:47:31;101119.78;;;-2.49;100.00
68941;BME280;55982;51.476;7.552;2023-02-28T01:49:57;101120.28;;;-2.37;100.00
68941;BME280;55982;51.476;7.552;2023-02-28T01:52:23;101109.09;;;-2.39;100.00
68941;BME280;55982;51.476;7.552;2023-02-28T01:54:54;101118.69;;;-2.33;100.00
68941;BME280;55982;51.476;7.552;2023-02-28T01:57:21;101115.16;;;-2.37;100.00
68941;BME280;55982;51.476;7.552;2023-02-28T02:00:09;101119.69;;;-2.30;100.00
68941;BME280;55982;51.476;7.552;2023-02-28T02:02:34;101112.13;;;-2.27;100.00
68941;BME280;55982;51.476;7.552;2023-02-28T02:05:21;101113.50;;;-2.13;100.00
68941;BME280;55982;51.476;7.552;2023-02-28T02:07:45;101112.13;;;-2.05;100.00
68941;BME280;55982;51.476;7.552;2023-02-28T02:10:15;101114.22;;;-1.95;100.00
68941;BME280;55982;51.476;7.552;2023-02-28T02:15:16;101108.38;;;-2.13;100.00
68941;BME280;55982;51.476;7.552;2023-02-28T02:17:48;101106.75;;;-2.11;100.00
68941;BME280;55982;51.476;7.552;2023-02-28T02:25:42;101097.22;;;-1.93;100.00
68941;BME280;55982;51.476;7.552;2023-02-28T02:31:04;101101.53;;;-2.14;100.00
68941;BME280;55982;51.476;7.552;2023-02-28T02:33:40;101101.13;;;-1.78;100.00
68941;BME280;55982;51.476;7.552;2023-02-28T02:36:14;101094.69;;;-1.91;100.00
68941;BME280;55982;51.476;7.552;2023-02-28T02:38:48;101103.50;;;-1.84;100.00
68941;BME280;55982;51.476;7.552;2023-02-28T02:41:20;101096.56;;;-1.63;100.00
68941;BME280;55982;51.476;7.552;2023-02-28T02:43:50;101094.00;;;-1.63;100.00
68941;BME280;55982;51.476;7.552;2023-02-28T02:48:42;101098.31;;;-1.62;100.00
68941;BME280;55982;51.476;7.552;2023-02-28T02:51:11;101091.88;;;-1.75;100.00
68941;BME280;55982;51.476;7.552;2023-02-28T02:53:40;101098.22;;;-1.65;100.00
68941;BME280;55982;51.476;7.552;2023-02-28T02:56:06;101103.78;;;-1.77;100.00
68941;BME280;55982;51.476;7.552;2023-02-28T02:58:33;101103.13;;;-1.71;100.00
68941;BME280;55982;51.476;7.552;2023-02-28T03:01:01;101098.50;;;-1.80;100.00
68941;BME280;55982;51.476;7.552;2023-02-28T03:03:27;101097.88;;;-1.74;100.00
68941;BME280;55982;51.476;7.552;2023-02-28T03:05:55;101098.03;;;-1.70;100.00
68941;BME280;55982;51.476;7.552;2023-02-28T03:08:20;101095.19;;;-1.77;100.00
68941;BME280;55982;51.476;7.552;2023-02-28T03:10:48;101086.81;;;-1.96;100.00
68941;BME280;55982;51.476;7.552;2023-02-28T03:13:17;101090.50;;;-2.11;100.00
68941;BME280;55982;51.476;7.552;2023-02-28T03:18:24;101090.22;;;-1.97;100.00
68941;BME280;55982;51.476;7.552;2023-02-28T03:23:34;101085.50;;;-2.08;100.00
68941;BME280;55982;51.476;7.552;2023-02-28T03:26:07;101080.47;;;-2.05;100.00
68941;BME280;55982;51.476;7.552;2023-02-28T03:28:51;101085.91;;;-2.20;100.00
68941;BME280;55982;51.476;7.552;2023-02-28T03:31:21;101079.16;;;-2.18;100.00
68941;BME280;55982;51.476;7.552;2023-02-28T03:33:51;101087.56;;;-2.22;100.00
68941;BME280;55982;51.476;7.552;2023-02-28T03:36:26;101076.75;;;-2.13;100.00
68941;BME280;55982;51.476;7.552;2023-02-28T03:38:57;101082.53;;;-2.19;100.00
68941;BME280;55982;51.476;7.552;2023-02-28T03:41:31;101083.53;;;-2.15;100.00
68941;BME280;55982;51.476;7.552;2023-02-28T03:44:01;101093.97;;;-2.33;100.00
68941;BME280;55982;51.476;7.552;2023-02-28T03:46:29;101087.38;;;-2.26;100.00
68941;BME280;55982;51.476;7.552;2023-02-28T03:49:03;101087.56;;;-2.22;100.00
68941;BME280;55982;51.476;7.552;2023-02-28T03:51:32;101091.63;;;-2.05;100.00
68941;BME280;55982;51.476;7.552;2023-02-28T03:53:59;101093.41;;;-2.24;100.00
68941;BME280;55982;51.476;7.552;2023-02-28T03:56:30;101091.97;;;-2.40;100.00
68941;BME280;55982;51.476;7.552;2023-02-28T03:59:00;101096.72;;;-2.49;100.00
68941;BME280;55982;51.476;7.552;2023-02-28T04:03:58;101088.00;;;-2.54;100.00
68941;BME280;55982;51.476;7.552;2023-02-28T04:06:23;101090.09;;;-2.44;100.00
68941;BME280;55982;51.476;7.552;2023-02-28T04:08:49;101093.72;;;-2.39;100.00
68941;BME280;55982;51.476;7.552;2023-02-28T04:11:18;101086.38;;;-2.52;100.00
68941;BME280;55982;51.476;7.552;2023-02-28T04:13:44;101086.94;;;-2.59;100.00
68941;BME280;55982;51.476;7.552;2023-02-28T04:16:10;101090.06;;;-2.66;100.00
68941;BME280;55982;51.476;7.552;2023-02-28T04:18:37;101100.25;;;-2.88;100.00
68941;BME280;55982;51.476;7.552;2023-02-28T04:21:02;101099.88;;;-2.97;100.00
68941;BME280;55982;51.476;7.552;2023-02-28T04:23:28;101098.53;;;-3.10;100.00
68941;BME280;55982;51.476;7.552;2023-02-28T04:25:54;101096.44;;;-3.18;100.00
68941;BME280;55982;51.476;7.552;2023-02-28T04:28:19;101102.38;;;-3.19;100.00
68941;BME280;55982;51.476;7.552;2023-02-28T04:30:45;101096.44;;;-3.18;100.00
68941;BME280;55982;51.476;7.552;2023-02-28T04:33:10;101104.69;;;-3.25;100.00
68941;BME280;55982;51.476;7.552;2023-02-28T04:35:35;101104.75;;;-3.03;100.00
68941;BME280;55982;51.476;7.552;2023-02-28T04:38:00;101104.75;;;-3.03;100.00
68941;BME280;55982;51.476;7.552;2023-02-28T04:40:26;101101.94;;;-3.09;100.00
68941;BME280;55982;51.476;7.552;2023-02-28T04:42:51;101108.91;;;-3.26;100.00
68941;BME280;55982;51.476;7.552;2023-02-28T04:45:16;101104.09;;;-3.39;100.00
68941;BME280;55982;51.476;7.552;2023-02-28T04:47:42;101111.63;;;-3.61;100.00
68941;BME280;55982;51.476;7.552;2023-02-28T04:50:07;101109.84;;;-3.63;100.00
68941;BME280;55982;51.476;7.552;2023-02-28T04:52:33;101111.38;;;-3.67;100.00
68941;BME280;55982;51.476;7.552;2023-02-28T04:54:59;101117.78;;;-3.57;100.00
68941;BME280;55982;51.476;7.552;2023-02-28T04:57:24;101107.66;;;-3.54;100.00
68941;BME280;55982;51.476;7.552;2023-02-28T04:59:52;101115.81;;;-3.44;100.00
68941;BME280;55982;51.476;7.552;2023-02-28T05:02:17;101105.47;;;-3.26;100.00
68941;BME280;55982;51.476;7.552;2023-02-28T05:04:42;101108.69;;;-3.30;100.00
68941;BME280;55982;51.476;7.552;2023-02-28T05:07:07;101115.53;;;-3.50;100.00
68941;BME280;55982;51.476;7.552;2023-02-28T05:09:33;101115.88;;;-3.61;100.00
68941;BME280;55982;51.476;7.552;2023-02-28T05:11:58;101117.56;;;-3.62;100.00
68941;BME280;55982;51.476;7.552;2023-02-28T05:14:23;101118.34;;;-3.63;100.00
68941;BME280;55982;51.476;7.552;2023-02-28T05:16:48;101116.81;;;-3.79;100.00
68941;BME280;55982;51.476;7.552;2023-02-28T05:19:14;101114.94;;;-3.83;100.00
68941;BME280;55982;51.476;7.552;2023-02-28T05:22:12;101122.19;;;-3.73;100.00
68941;BME280;55982;51.476;7.552;2023-02-28T05:24:30;101124.63;;;-3.56;100.00
68941;BME280;55982;51.476;7.552;2023-02-28T05:26:56;101129.78;;;-3.74;100.00
68941;BME280;55982;51.476;7.552;2023-02-28T05:29:21;101136.44;;;-3.97;100.00
68941;BME280;55982;51.476;7.552;2023-02-28T05:31:47;101130.91;;;-4.06;100.00
68941;BME280;55982;51.476;7.552;2023-02-28T05:34:12;101127.84;;;-4.16;100.00
68941;BME280;55982;51.476;7.552;2023-02-28T05:36:37;101131.00;;;-4.22;100.00
68941;BME280;55982;51.476;7.552;2023-02-28T05:39:03;101133.56;;;-4.22;100.00
68941;BME280;55982;51.476;7.552;2023-02-28T05:41:29;101131.22;;;-4.17;100.00
68941;BME280;55982;51.476;7.552;2023-02-28T05:43:55;101136.47;;;-4.14;100.00
68941;BME280;55982;51.476;7.552;2023-02-28T05:46:20;101134.22;;;-4.26;100.00
68941;BME280;55982;51.476;7.552;2023-02-28T05:48:46;101135.16;;;-4.24;100.00
68941;BME280;55982;51.476;7.552;2023-02-28T05:51:12;101140.84;;;-4.12;100.00
68941;BME280;55982;51.476;7.552;2023-02-28T05:53:37;101134.13;;;-4.10;100.00
68941;BME280;55982;51.476;7.552;2023-02-28T05:56:03;101141.13;;;-4.06;100.00
68941;BME280;55982;51.476;7.552;2023-02-28T05:58:28;101143.75;;;-4.04;100.00
68941;BME280;55982;51.476;7.552;2023-02-28T06:00:56;101142.88;;;-4.05;100.00
68941;BME280;55982;51.476;7.552;2023-02-28T06:03:21;101143.28;;;-3.96;100.00
68941;BME280;55982;51.476;7.552;2023-02-28T06:05:46;101144.19;;;-4.13;100.00
68941;BME280;55982;51.476;7.552;2023-02-28T06:08:12;101149.75;;;-4.21;100.00
68941;BME280;55982;51.476;7.552;2023-02-28T06:10:37;101154.81;;;-4.40;100.00
68941;BME280;55982;51.476;7.552;2023-02-28T06:13:03;101149.13;;;-4.35;100.00
68941;BME280;55982;51.476;7.552;2023-02-28T06:15:29;101155.19;;;-4.33;100.00
68941;BME280;55982;51.476;7.552;2023-02-28T06:17:54;101165.03;;;-4.40;100.00
68941;BME280;55982;51.476;7.552;2023-02-28T06:20:21;101164.66;;;-4.48;100.00
68941;BME280;55982;51.476;7.552;2023-02-28T06:22:46;101168.31;;;-4.43;100.00
68941;BME280;55982;51.476;7.552;2023-02-28T06:25:11;101160.28;;;-4.33;100.00
68941;BME280;55982;51.476;7.552;2023-02-28T06:27:37;101166.63;;;-4.25;100.00
68941;BME280;55982;51.476;7.552;2023-02-28T06:30:02;101171.75;;;-4.25;100.00
68941;BME280;55982;51.476;7.552;2023-02-28T06:32:28;101172.53;;;-4.26;100.00
68941;BME280;55982;51.476;7.552;2023-02-28T06:34:53;101172.69;;;-4.23;100.00
68941;BME280;55982;51.476;7.552;2023-02-28T06:37:18;101167.41;;;-4.26;100.00
68941;BME280;55982;51.476;7.552;2023-02-28T06:39:44;101172.69;;;-4.23;100.00
68941;BME280;55982;51.476;7.552;2023-02-28T06:42:09;101169.75;;;-4.13;100.00
68941;BME280;55982;51.476;7.552;2023-02-28T06:44:34;101172.66;;;-4.05;100.00
68941;BME280;55982;51.476;7.552;2023-02-28T06:47:03;101172.22;;;-3.97;100.00
68941;BME280;55982;51.476;7.552;2023-02-28T06:49:30;101180.38;;;-3.86;100.00
68941;BME280;55982;51.476;7.552;2023-02-28T06:51:55;101176.41;;;-3.80;100.00
68941;BME280;55982;51.476;7.552;2023-02-28T06:54:20;101185.97;;;-3.76;100.00
68941;BME280;55982;51.476;7.552;2023-02-28T06:56:45;101181.09;;;-3.71;100.00
68941;BME280;55982;51.476;7.552;2023-02-28T06:59:12;101176.97;;;-3.67;100.00
68941;BME280;55982;51.476;7.552;2023-02-28T07:01:37;101183.97;;;-3.63;100.00
68941;BME280;55982;51.476;7.552;2023-02-28T07:04:04;101187.44;;;-3.44;100.00
68941;BME280;55982;51.476;7.552;2023-02-28T07:06:30;101178.06;;;-3.43;100.00
68941;BME280;55982;51.476;7.552;2023-02-28T07:08:56;101182.03;;;-3.50;100.00
68941;BME280;55982;51.476;7.552;2023-02-28T07:11:22;101179.66;;;-3.45;100.00
68941;BME280;55982;51.476;7.552;2023-02-28T07:13:48;101185.06;;;-3.39;100.00
68941;BME280;55982;51.476;7.552;2023-02-28T07:16:13;101183.31;;;-3.40;100.00
68941;BME280;55982;51.476;7.552;2023-02-28T07:18:39;101196.22;;;-3.37;100.00
68941;BME280;55982;51.476;7.552;2023-02-28T07:21:04;101195.22;;;-3.22;100.00
68941;BME280;55982;51.476;7.552;2023-02-28T07:23:30;101194.06;;;-3.09;100.00
68941;BME280;55982;51.476;7.552;2023-02-28T07:25:55;101202.66;;;-2.88;100.00
68941;BME280;55982;51.476;7.552;2023-02-28T07:28:21;101203.44;;;-2.70;100.00
68941;BME280;55982;51.476;7.552;2023-02-28T07:30:46;101200.81;;;-2.51;100.00
68941;BME280;55982;51.476;7.552;2023-02-28T07:33:11;101187.94;;;-2.32;100.00
68941;BME280;55982;51.476;7.552;2023-02-28T07:35:36;101196.28;;;-1.95;100.00
68941;BME280;55982;51.476;7.552;2023-02-28T07:38:02;101192.53;;;-1.80;100.00
68941;BME280;55982;51.476;7.552;2023-02-28T07:40:28;101188.69;;;-1.69;100.00
68941;BME280;55982;51.476;7.552;2023-02-28T07:42:53;101187.97;;;-1.43;100.00
68941;BME280;55982;51.476;7.552;2023-02-28T07:45:18;101187.19;;;-1.17;100.00
68941;BME280;55982;51.476;7.552;2023-02-28T07:47:44;101182.22;;;-1.13;100.00
68941;BME280;55982;51.476;7.552;2023-02-28T07:50:10;101184.25;;;-1.04;100.00
68941;BME280;55982;51.476;7.552;2023-02-28T07:52:36;101189.25;;;-1.07;100.00
68941;BME280;55982;51.476;7.552;2023-02-28T07:55:02;101186.59;;;-1.10;100.00
68941;BME280;55982;51.476;7.552;2023-02-28T07:57:27;101183.38;;;-1.05;100.00
68941;BME280;55982;51.476;7.552;2023-02-28T07:59:53;101183.19;;;-1.09;100.00
68941;BME280;55982;51.476;7.552;2023-02-28T08:02:18;101192.75;;;-1.05;100.00
68941;BME280;55982;51.476;7.552;2023-02-28T08:04:44;101192.53;;;-1.11;100.00
68941;BME280;55982;51.476;7.552;2023-02-28T08:07:09;101191.28;;;-1.22;100.00
68941;BME280;55982;51.476;7.552;2023-02-28T08:09:38;101195.19;;;-1.33;100.00
68941;BME280;55982;51.476;7.552;2023-02-28T08:12:03;101192.53;;;-0.87;100.00
68941;BME280;55982;51.476;7.552;2023-02-28T08:14:29;101184.28;;;-0.54;100.00
68941;BME280;55982;51.476;7.552;2023-02-28T08:16:54;101187.09;;;-0.20;100.00
68941;BME280;55982;51.476;7.552;2023-02-28T08:19:19;101187.97;;;0.08;100.00
68941;BME280;55982;51.476;7.552;2023-02-28T08:21:44;101193.78;;;0.88;100.00
68941;BME280;55982;51.476;7.552;2023-02-28T08:24:09;101189.53;;;1.90;100.00
68941;BME280;55982;51.476;7.552;2023-02-28T08:26:35;101184.84;;;2.11;100.00
68941;BME280;55982;51.476;7.552;2023-02-28T08:29:00;101189.44;;;1.18;100.00
68941;BME280;55982;51.476;7.552;2023-02-28T08:31:25;101192.63;;;0.49;100.00
68941;BME280;55982;51.476;7.552;2023-02-28T08:33:51;101202.50;;;0.63;100.00
68941;BME280;55982;51.476;7.552;2023-02-28T08:36:18;101193.09;;;1.96;100.00
68941;BME280;55982;51.476;7.552;2023-02-28T08:38:44;101198.66;;;2.93;100.00
68941;BME280;55982;51.476;7.552;2023-02-28T08:41:10;101193.06;;;4.18;100.00
68941;BME280;55982;51.476;7.552;2023-02-28T08:43:36;101209.84;;;4.46;100.00
68941;BME280;55982;51.476;7.552;2023-02-28T08:46:01;101212.53;;;4.52;96.37
68941;BME280;55982;51.476;7.552;2023-02-28T08:48:27;101195.03;;;3.28;100.00
68941;BME280;55982;51.476;7.552;2023-02-28T08:51:11;101198.38;;;4.29;98.01
68941;BME280;55982;51.476;7.552;2023-02-28T08:53:37;101201.66;;;5.61;85.93
68941;BME280;55982;51.476;7.552;2023-02-28T08:56:13;101201.69;;;4.80;82.73
68941;BME280;55982;51.476;7.552;2023-02-28T08:58:39;101197.41;;;5.71;77.57
68941;BME280;55982;51.476;7.552;2023-02-28T09:01:20;101199.44;;;5.12;78.29
68941;BME280;55982;51.476;7.552;2023-02-28T09:03:46;101205.63;;;4.51;76.72
68941;BME280;55982;51.476;7.552;2023-02-28T09:06:13;101191.00;;;6.36;74.23
68941;BME280;55982;51.476;7.552;2023-02-28T09:08:38;101196.84;;;5.10;72.35
68941;BME280;55982;51.476;7.552;2023-02-28T09:11:04;101195.88;;;5.02;74.29
68941;BME280;55982;51.476;7.552;2023-02-28T09:13:29;101200.19;;;3.78;73.96
68941;BME280;55982;51.476;7.552;2023-02-28T09:15:57;101198.06;;;2.63;91.40
68941;BME280;55982;51.476;7.552;2023-02-28T09:18:22;101196.38;;;2.25;100.00
68941;BME280;55982;51.476;7.552;2023-02-28T09:20:47;101191.59;;;1.68;100.00
68941;BME280;55982;51.476;7.552;2023-02-28T09:23:13;101198.03;;;1.51;100.00
68941;BME280;55982;51.476;7.552;2023-02-28T09:25:44;101185.53;;;1.66;100.00
68941;BME280;55982;51.476;7.552;2023-02-28T09:28:10;101198.16;;;2.69;100.00
68941;BME280;55982;51.476;7.552;2023-02-28T09:30:36;101196.06;;;4.47;90.07
68941;BME280;55982;51.476;7.552;2023-02-28T09:33:01;101191.44;;;3.71;82.67
68941;BME280;55982;51.476;7.552;2023-02-28T09:35:29;101191.56;;;5.01;77.67
68941;BME280;55982;51.476;7.552;2023-02-28T09:37:56;101184.00;;;5.24;72.38
68941;BME280;55982;51.476;7.552;2023-02-28T09:40:24;101186.25;;;3.69;79.74
68941;BME280;55982;51.476;7.552;2023-02-28T09:42:51;101195.22;;;2.94;86.60
68941;BME280;55982;51.476;7.552;2023-02-28T09:47:48;101188.72;;;2.31;100.00
68941;BME280;55982;51.476;7.552;2023-02-28T09:52:54;101197.19;;;2.24;100.00
68941;BME280;55982;51.476;7.552;2023-02-28T09:57:45;101199.47;;;3.35;96.92
68941;BME280;55982;51.476;7.552;2023-02-28T10:00:15;101202.19;;;2.98;94.32
68941;BME280;55982;51.476;7.552;2023-02-28T10:05:12;101200.63;;;5.44;74.24
68941;BME280;55982;51.476;7.552;2023-02-28T10:10:21;101199.38;;;5.07;69.78
68941;BME280;55982;51.476;7.552;2023-02-28T10:12:49;101194.53;;;6.47;70.56
68941;BME280;55982;51.476;7.552;2023-02-28T10:15:17;101193.50;;;6.16;63.38
68941;BME280;55982;51.476;7.552;2023-02-28T10:17:44;101189.09;;;6.08;66.68
68941;BME280;55982;51.476;7.552;2023-02-28T10:23:21;101183.31;;;6.56;65.45
68941;BME280;55982;51.476;7.552;2023-02-28T10:25:27;101174.78;;;6.97;61.14
68941;BME280;55982;51.476;7.552;2023-02-28T10:27:53;101184.75;;;5.12;62.84
68941;BME280;55982;51.476;7.552;2023-02-28T10:30:19;101182.03;;;5.89;65.09
68941;BME280;55982;51.476;7.552;2023-02-28T10:32:47;101171.25;;;5.46;64.81
68941;BME280;55982;51.476;7.552;2023-02-28T10:35:21;101180.38;;;5.08;65.86
68941;BME280;55982;51.476;7.552;2023-02-28T10:37:51;101174.97;;;5.79;62.75
68941;BME280;55982;51.476;7.552;2023-02-28T10:42:54;101167.84;;;5.53;62.92
68941;BME280;55982;51.476;7.552;2023-02-28T10:45:19;101161.94;;;4.84;63.71
68941;BME280;55982;51.476;7.552;2023-02-28T10:47:58;101168.47;;;4.52;63.01
68941;BME280;55982;51.476;7.552;2023-02-28T10:50:46;101166.84;;;3.43;67.48
68941;BME280;55982;51.476;7.552;2023-02-28T10:58:42;101170.53;;;3.57;68.90
68941;BME280;55982;51.476;7.552;2023-02-28T11:01:51;101168.63;;;4.64;67.46
68941;BME280;55982;51.476;7.552;2023-02-28T11:03:58;101162.69;;;5.55;65.34
68941;BME280;55982;51.476;7.552;2023-02-28T11:06:33;101167.34;;;5.02;64.00
68941;BME280;55982;51.476;7.552;2023-02-28T11:08:59;101167.38;;;6.01;63.90
68941;BME280;55982;51.476;7.552;2023-02-28T11:11:26;101169.78;;;5.79;66.42
68941;BME280;55982;51.476;7.552;2023-02-28T11:13:54;101160.00;;;6.75;62.49
68941;BME280;55982;51.476;7.552;2023-02-28T11:16:21;101162.78;;;4.13;64.44
68941;BME280;55982;51.476;7.552;2023-02-28T11:21:16;101159.97;;;4.62;63.29
68941;BME280;55982;51.476;7.552;2023-02-28T11:23:43;101154.97;;;5.63;63.44
68941;BME280;55982;51.476;7.552;2023-02-28T11:26:08;101152.88;;;5.24;60.50
68941;BME280;55982;51.476;7.552;2023-02-28T11:28:38;101128.78;;;5.40;60.07
68941;BME280;55982;51.476;7.552;2023-02-28T11:36:21;101148.44;;;5.12;62.80
68941;BME280;55982;51.476;7.552;2023-02-28T11:38:49;101133.09;;;5.33;62.55
68941;BME280;55982;51.476;7.552;2023-02-28T11:46:30;101138.38;;;5.45;62.27
68941;BME280;55982;51.476;7.552;2023-02-28T11:51:28;101130.28;;;6.22;59.66
68941;BME280;55982;51.476;7.552;2023-02-28T11:56:43;101144.03;;;6.03;59.58
68941;BME280;55982;51.476;7.552;2023-02-28T12:07:16;101125.59;;;5.73;60.66
68941;BME280;55982;51.476;7.552;2023-02-28T12:17:39;101132.38;;;5.51;60.89
68941;BME280;55982;51.476;7.552;2023-02-28T12:20:17;101124.66;;;5.58;61.92
68941;BME280;55982;51.476;7.552;2023-02-28T12:25:37;101123.84;;;4.77;62.95
68941;BME280;55982;51.476;7.552;2023-02-28T12:28:12;101109.34;;;4.21;64.22
68941;BME280;55982;51.476;7.552;2023-02-28T12:30:39;101106.69;;;4.15;65.35
68941;BME280;55982;51.476;7.552;2023-02-28T12:33:07;101110.53;;;3.83;66.60
68941;BME280;55982;51.476;7.552;2023-02-28T12:35:37;101102.34;;;4.14;67.41
68941;BME280;55982;51.476;7.552;2023-02-28T12:38:17;101096.06;;;4.64;67.99
68941;BME280;55982;51.476;7.552;2023-02-28T12:40:47;101102.28;;;4.08;67.64
68941;BME280;55982;51.476;7.552;2023-02-28T12:43:16;101091.63;;;4.52;68.57
68941;BME280;55982;51.476;7.552;2023-02-28T12:45:50;101086.53;;;4.63;69.10
68941;BME280;55982;51.476;7.552;2023-02-28T12:48:21;101085.63;;;4.56;69.22
68941;BME280;55982;51.476;7.552;2023-02-28T12:50:49;101085.13;;;4.19;67.21
68941;BME280;55982;51.476;7.552;2023-02-28T12:53:23;101088.59;;;4.18;69.19
68941;BME280;55982;51.476;7.552;2023-02-28T12:58:33;101070.88;;;4.52;69.88
68941;BME280;55982;51.476;7.552;2023-02-28T13:11:06;101079.97;;;4.19;69.98
68941;BME280;55982;51.476;7.552;2023-02-28T13:13:31;101066.69;;;3.93;70.12
68941;BME280;55982;51.476;7.552;2023-02-28T13:15:58;101052.53;;;4.33;74.18
68941;BME280;55982;51.476;7.552;2023-02-28T13:18:35;101063.81;;;4.38;71.92
68941;BME280;55982;51.476;7.552;2023-02-28T13:21:02;101060.03;;;4.10;72.53
68941;BME280;55982;51.476;7.552;2023-02-28T13:23:36;101064.22;;;4.04;72.28
68941;BME280;55982;51.476;7.552;2023-02-28T13:26:02;101051.47;;;4.17;71.12
68941;BME280;55982;51.476;7.552;2023-02-28T13:31:12;101045.47;;;4.23;73.13
68941;BME280;55982;51.476;7.552;2023-02-28T13:38:42;101040.44;;;4.32;71.31
68941;BME280;55982;51.476;7.552;2023-02-28T13:46:35;101027.41;;;4.27;71.78
68941;BME280;55982;51.476;7.552;2023-02-28T13:51:46;101042.00;;;4.21;70.42
68941;BME280;55982;51.476;7.552;2023-02-28T13:54:34;101031.88;;;4.39;70.89
68941;BME280;55982;51.476;7.552;2023-02-28T14:04:59;101036.06;;;4.29;71.92
68941;BME280;55982;51.476;7.552;2023-02-28T14:07:26;101007.34;;;4.07;72.27
68941;BME280;55982;51.476;7.552;2023-02-28T14:10:01;101027.31;;;4.17;74.91
68941;BME280;55982;51.476;7.552;2023-02-28T14:18:22;101010.34;;;4.43;78.32
68941;BME280;55982;51.476;7.552;2023-02-28T14:20:49;101025.00;;;4.44;75.08
68941;BME280;55982;51.476;7.552;2023-02-28T14:31:19;101021.19;;;4.12;84.70
68941;BME280;55982;51.476;7.552;2023-02-28T14:38:42;101028.06;;;4.10;80.74
68941;BME280;55982;51.476;7.552;2023-02-28T14:41:14;101029.84;;;4.14;81.18
68941;BME280;55982;51.476;7.552;2023-02-28T14:43:47;101024.75;;;4.20;81.84
68941;BME280;55982;51.476;7.552;2023-02-28T14:46:13;101020.28;;;4.08;80.67
68941;BME280;55982;51.476;7.552;2023-02-28T14:48:39;101023.78;;;4.10;80.86
68941;BME280;55982;51.476;7.552;2023-02-28T14:51:04;101020.19;;;4.01;81.65
68941;BME280;55982;51.476;7.552;2023-02-28T14:53:30;101016.00;;;4.12;82.84
68941;BME280;55982;51.476;7.552;2023-02-28T14:55:59;101015.19;;;4.13;80.46
68941;BME280;55982;51.476;7.552;2023-02-28T14:58:26;101013.34;;;4.04;78.40
68941;BME280;55982;51.476;7.552;2023-02-28T15:00:53;101016.00;;;4.12;80.87
68941;BME280;55982;51.476;7.552;2023-02-28T15:03:20;101022.06;;;4.11;78.30
68941;BME280;55982;51.476;7.552;2023-02-28T15:05:54;101015.09;;;4.05;78.75
68941;BME280;55982;51.476;7.552;2023-02-28T15:08:19;101016.91;;;4.15;79.67